Time;durP1;ratioP1;P1;durP2;ratioP2;P2;SDS_P1;SDS_P2;PMS_P1;PMS_P2;Temp;Humidity;BMP_temperature;BMP_pressure;BME280_temperature;BME280_humidity;BME280_pressure;Samples;Min_cycle;Max_cycle;Signal;HPM_P1;HPM_P2
2023/07/08 00:03:48;;;;;;;6.03;2.95;;;;;;;20.95;47.04;100309.19;7722693;32;39294;-78
2023/07/08 00:08:05;;;;;;;4.03;2.25;;;;;;;20.68;48.23;100315.91;7726715;32;39805;-79
2023/07/08 00:12:21;;;;;;;5.35;2.50;;;;;;;20.81;47.63;100318.50;7736329;32;38806;-79
2023/07/08 00:16:37;;;;;;;6.37;2.85;;;;;;;20.82;47.66;100316.56;7724742;32;37198;-79
2023/07/08 00:20:54;;;;;;;5.28;2.65;;;;;;;20.66;48.48;100312.66;7717083;32;39783;-79
2023/07/08 00:25:10;;;;;;;4.70;2.67;;;;;;;20.66;48.83;100318.19;7711325;32;40305;-79
2023/07/08 00:29:27;;;;;;;7.25;2.90;;;;;;;20.65;49.38;100317.38;7719428;32;37870;-79
2023/07/08 00:33:43;;;;;;;6.10;2.85;;;;;;;20.52;49.65;100313.59;7728692;32;36980;-80
2023/07/08 00:38:02;;;;;;;3.72;2.50;;;;;;;20.42;49.55;100309.22;7729832;32;40160;-80
2023/07/08 00:42:23;;;;;;;5.85;3.22;;;;;;;20.36;50.61;100318.00;7737628;32;40048;-79
2023/07/08 00:46:51;;;;;;;5.20;3.15;;;;;;;20.42;50.84;100316.69;7702728;32;38220;-80
2023/07/08 00:51:12;;;;;;;4.25;2.35;;;;;;;20.62;50.22;100318.84;7726485;32;37075;-79
2023/07/08 00:55:29;;;;;;;5.82;2.67;;;;;;;20.62;49.45;100323.56;7723749;32;39967;-79
2023/07/08 00:59:53;;;;;;;5.47;2.72;;;;;;;20.16;49.57;100313.91;7706636;32;40516;-80
2023/07/08 01:04:14;;;;;;;5.87;2.87;;;;;;;20.01;48.92;100310.47;7709733;32;38022;-79
2023/07/08 01:08:32;;;;;;;6.57;2.95;;;;;;;19.98;48.31;100310.31;7698529;32;37126;-80
2023/07/08 01:12:53;;;;;;;6.00;2.92;;;;;;;20.06;49.15;100301.22;7737131;32;38222;-79
2023/07/08 01:17:13;;;;;;;4.90;2.90;;;;;;;19.98;49.70;100311.09;7723854;32;39601;-79
2023/07/08 01:21:39;;;;;;;5.78;2.97;;;;;;;19.85;50.61;100317.59;7719434;32;37953;-79
2023/07/08 01:25:56;;;;;;;5.47;2.85;;;;;;;19.81;51.35;100316.59;7719542;32;37309;-79
2023/07/08 01:30:13;;;;;;;7.20;2.95;;;;;;;19.76;51.84;100320.31;7724386;32;39269;-79
2023/07/08 01:34:31;;;;;;;5.40;3.25;;;;;;;19.93;51.93;100329.81;7723427;32;39956;-78
2023/07/08 01:38:47;;;;;;;5.95;3.10;;;;;;;19.71;53.02;100317.66;7737126;32;38023;-79
2023/07/08 01:43:05;;;;;;;5.22;2.53;;;;;;;19.67;53.25;100316.69;7739929;32;37846;-79
2023/07/08 01:47:25;;;;;;;8.90;3.40;;;;;;;19.63;53.56;100324.00;7731437;32;39427;-80
2023/07/08 01:51:41;;;;;;;7.72;2.97;;;;;;;19.66;53.91;100326.13;7700630;32;40863;-79
2023/07/08 01:55:57;;;;;;;5.80;2.87;;;;;;;19.71;52.89;100317.66;7706457;32;38823;-80
2023/07/08 02:00:14;;;;;;;5.20;2.50;;;;;;;19.70;51.79;100313.28;7712911;32;37249;-79
2023/07/08 02:04:30;;;;;;;5.68;2.95;;;;;;;19.65;50.98;100307.91;7722057;32;37770;-79
2023/07/08 02:08:47;;;;;;;6.22;2.55;;;;;;;19.63;50.67;100308.22;7735353;32;39685;-80
2023/07/08 02:13:03;;;;;;;5.47;2.90;;;;;;;19.50;50.90;100315.47;7735384;32;38057;-79
2023/07/08 02:17:20;;;;;;;5.30;2.90;;;;;;;19.63;50.76;100316.53;7739077;32;36949;-79
2023/07/08 02:21:37;;;;;;;5.53;2.78;;;;;;;19.62;50.52;100322.37;7725952;32;39280;-79
2023/07/08 02:25:54;;;;;;;6.50;2.90;;;;;;;19.16;51.11;100318.09;7739194;32;39917;-79
2023/07/08 02:30:11;;;;;;;5.05;2.33;;;;;;;19.01;51.37;100322.88;7726085;32;37582;-80
2023/07/08 02:34:27;;;;;;;5.43;2.87;;;;;;;19.07;50.90;100305.03;7719488;32;37013;-79
2023/07/08 02:38:43;;;;;;;5.57;2.78;;;;;;;19.14;50.48;100322.00;7714634;32;39489;-78
2023/07/08 02:43:00;;;;;;;4.78;2.53;;;;;;;18.99;50.91;100327.09;7721956;32;39926;-80
2023/07/08 02:47:16;;;;;;;5.22;2.40;;;;;;;18.94;51.02;100323.31;7712350;32;38692;-79
2023/07/08 02:51:32;;;;;;;4.80;2.60;;;;;;;19.09;50.63;100324.91;7712823;32;37112;-80
2023/07/08 02:55:49;;;;;;;4.18;2.40;;;;;;;19.03;50.38;100323.38;7712236;32;39088;-80
2023/07/08 03:00:06;;;;;;;3.87;2.28;;;;;;;18.64;50.86;100329.56;7712090;32;40778;-79
2023/07/08 03:04:25;;;;;;;5.22;2.90;;;;;;;18.49;51.49;100339.03;7720752;32;38100;-79
2023/07/08 03:08:41;;;;;;;4.18;2.42;;;;;;;18.37;51.87;100339.59;7734557;32;36103;-80
2023/07/08 03:12:57;;;;;;;6.57;2.72;;;;;;;18.62;51.13;100335.41;7712176;32;39711;-79
2023/07/08 03:17:14;;;;;;;8.63;2.65;;;;;;;18.84;50.66;100336.59;7737063;32;40038;-80
2023/07/08 03:21:31;;;;;;;5.75;2.55;;;;;;;18.46;51.41;100342.44;7734960;32;38715;-79
2023/07/08 03:25:48;;;;;;;5.20;3.10;;;;;;;18.53;51.39;100340.84;7721224;32;37263;-79
2023/07/08 03:30:05;;;;;;;4.95;3.05;;;;;;;18.70;50.99;100342.94;7703547;32;39216;-80
2023/07/08 03:34:21;;;;;;;8.23;2.75;;;;;;;18.81;51.11;100339.94;7738675;32;39938;-79
2023/07/08 03:38:38;;;;;;;5.00;2.70;;;;;;;18.80;51.22;100346.59;7738438;32;38763;-79
2023/07/08 03:42:54;;;;;;;4.93;2.70;;;;;;;18.66;52.00;100350.25;7738556;32;37042;-80
2023/07/08 03:47:10;;;;;;;5.03;2.90;;;;;;;18.68;52.19;100345.22;7738784;32;39367;-80
2023/07/08 03:51:30;;;;;;;6.37;2.80;;;;;;;18.62;53.04;100354.72;7738559;32;40699;-80
2023/07/08 03:55:46;;;;;;;6.37;2.85;;;;;;;18.69;53.08;100357.06;7720346;32;37944;-80
2023/07/08 04:00:03;;;;;;;5.07;2.78;;;;;;;18.77;53.03;100359.91;7711661;32;37193;-79
2023/07/08 04:04:19;;;;;;;5.95;2.62;;;;;;;18.86;52.64;100359.19;7715165;32;39596;-79
2023/07/08 04:08:36;;;;;;;8.00;3.15;;;;;;;18.87;52.72;100361.63;7718349;32;40777;-78
2023/07/08 04:12:52;;;;;;;5.40;2.33;;;;;;;18.86;52.67;100360.00;7711244;32;38038;-80
2023/07/08 04:17:10;;;;;;;10.25;2.87;;;;;;;18.76;53.21;100352.75;7710964;32;37873;-80
2023/07/08 04:21:27;;;;;;;6.28;2.85;;;;;;;18.82;53.56;100347.12;7698998;32;38606;-80
2023/07/08 04:25:43;;;;;;;8.45;2.58;;;;;;;18.96;53.04;100353.41;7735367;32;40010;-80
2023/07/08 04:29:59;;;;;;;4.70;2.40;;;;;;;18.97;52.37;100355.03;7728397;32;38372;-79
2023/07/08 04:34:16;;;;;;;5.82;2.80;;;;;;;18.98;52.90;100355.84;7712228;32;37105;-80
2023/07/08 04:38:36;;;;;;;5.62;2.83;;;;;;;19.12;52.78;100351.06;7722516;32;39587;-79
2023/07/08 04:42:52;;;;;;;9.88;3.12;;;;;;;19.03;52.92;100351.00;7711049;32;39764;-79
2023/07/08 04:47:09;;;;;;;4.55;2.70;;;;;;;19.25;51.11;100357.66;7711643;32;37913;-79
2023/07/08 04:51:25;;;;;;;6.72;2.30;;;;;;;19.22;52.79;100361.84;7720610;32;36350;-79
2023/07/08 04:55:53;;;;;;;4.40;2.65;;;;;;;19.30;52.79;100374.12;7711083;32;39291;-79
2023/07/08 05:00:15;;;;;;;4.87;2.97;;;;;;;19.49;52.87;100371.94;7707495;32;40839;-80
2023/07/08 05:04:31;;;;;;;4.75;2.62;;;;;;;19.68;52.92;100368.12;7717525;32;38002;-80
2023/07/08 05:08:48;;;;;;;7.70;3.10;;;;;;;19.89;52.30;100368.38;7716740;32;37823;-79
2023/07/08 05:13:04;;;;;;;8.23;3.05;;;;;;;20.12;50.39;100362.75;7710491;32;39291;-79
2023/07/08 05:17:21;;;;;;;5.15;2.87;;;;;;;19.98;49.72;100383.06;7710149;32;40009;-79
2023/07/08 05:21:38;;;;;;;5.47;2.85;;;;;;;20.16;49.04;100369.25;7710094;32;38793;-79
2023/07/08 05:25:54;;;;;;;8.95;2.83;;;;;;;20.20;49.64;100379.37;7724340;32;37016;-80
2023/07/08 05:30:15;;;;;;;3.87;2.28;;;;;;;20.67;49.38;100367.72;7732423;32;40298;-80
2023/07/08 05:34:31;;;;;;;6.30;2.70;;;;;;;20.79;49.45;100369.84;7712704;32;39681;-80
2023/07/08 05:38:48;;;;;;;5.85;2.78;;;;;;;20.88;48.15;100373.41;7710001;32;38855;-81
2023/07/08 05:43:04;;;;;;;7.78;3.08;;;;;;;21.23;48.19;100370.62;7713175;32;37832;-80
2023/07/08 05:47:21;;;;;;;8.77;2.83;;;;;;;20.88;49.98;100381.72;7709836;32;40155;-80
2023/07/08 05:51:38;;;;;;;4.20;2.45;;;;;;;21.00;50.71;100384.66;7709694;32;40873;-80
2023/07/08 05:55:54;;;;;;;6.03;2.75;;;;;;;21.44;49.72;100383.75;7724375;32;37939;-79
2023/07/08 06:00:11;;;;;;;4.80;2.50;;;;;;;21.34;50.21;100388.53;7718750;32;37893;-79
2023/07/08 06:04:30;;;;;;;9.43;2.97;;;;;;;21.26;50.17;100394.09;7709677;32;40990;-77
2023/07/08 06:08:47;;;;;;;4.40;2.70;;;;;;;21.71;49.66;100383.41;7709301;32;41036;-80
2023/07/08 06:13:03;;;;;;;3.90;2.40;;;;;;;22.10;47.25;100389.72;7730885;32;38527;-80
2023/07/08 06:17:19;;;;;;;3.70;2.53;;;;;;;22.33;46.00;100392.22;7735868;32;37341;-80
2023/07/08 06:21:36;;;;;;;4.00;2.50;;;;;;;22.58;45.47;100389.63;7735836;32;39303;-80
2023/07/08 06:25:53;;;;;;;6.00;2.97;;;;;;;22.39;46.17;100387.31;7737310;32;39719;-81
2023/07/08 06:30:09;;;;;;;6.97;3.03;;;;;;;22.66;45.42;100394.28;7725609;32;37977;-80
2023/07/08 06:34:25;;;;;;;6.55;2.75;;;;;;;22.79;46.09;100386.84;7739563;32;37175;-76
2023/07/08 06:38:42;;;;;;;5.47;2.72;;;;;;;23.02;45.33;100384.50;7739448;32;39290;-76
2023/07/08 06:42:58;;;;;;;7.95;3.03;;;;;;;22.63;42.81;100381.09;7732253;32;40771;-73
2023/07/08 06:47:14;;;;;;;5.78;3.10;;;;;;;22.86;44.22;100379.56;7737077;32;38809;-67
2023/07/08 06:51:31;;;;;;;6.28;2.75;;;;;;;23.15;44.93;100380.63;7712524;32;38056;-68
2023/07/08 06:55:47;;;;;;;4.80;2.60;;;;;;;23.12;43.22;100381.31;7712602;32;39108;-67
2023/07/08 07:00:05;;;;;;;8.88;3.00;;;;;;;23.19;43.05;100381.56;7712358;32;40024;-67
2023/07/08 07:04:23;;;;;;;6.07;2.80;;;;;;;23.67;43.19;100381.22;7712403;32;37978;-68
2023/07/08 07:08:39;;;;;;;5.00;2.65;;;;;;;23.73;41.52;100385.38;7712308;32;36760;-67
2023/07/08 07:12:55;;;;;;;9.18;2.87;;;;;;;23.79;39.89;100381.22;7712121;32;39383;-66
2023/07/08 07:17:12;;;;;;;5.15;2.75;;;;;;;23.94;40.54;100371.38;7732290;32;40950;-68
2023/07/08 07:21:28;;;;;;;5.78;2.65;;;;;;;24.43;40.88;100368.56;7738788;32;37952;-68
2023/07/08 07:25:49;;;;;;;4.85;2.45;;;;;;;24.47;40.92;100361.09;7730355;32;37112;-68
2023/07/08 07:30:06;;;;;;;8.48;2.97;;;;;;;25.00;40.17;100355.50;7712102;32;39446;-68
2023/07/08 07:34:22;;;;;;;15.52;3.10;;;;;;;24.92;41.26;100364.81;7712019;32;39695;-69
2023/07/08 07:38:38;;;;;;;6.03;2.45;;;;;;;24.87;40.60;100359.50;7721889;32;38050;-68
2023/07/08 07:42:55;;;;;;;4.95;2.55;;;;;;;25.18;39.38;100360.75;7724759;32;37003;-68
2023/07/08 07:47:11;;;;;;;3.87;2.35;;;;;;;25.41;37.61;100350.66;7720298;32;39881;-69
2023/07/08 07:51:27;;;;;;;4.15;2.30;;;;;;;25.90;36.31;100346.66;7720028;32;39911;-68
2023/07/08 07:55:44;;;;;;;4.35;2.22;;;;;;;25.93;36.03;100356.31;7716365;32;38000;-69
2023/07/08 08:00:00;;;;;;;4.03;2.10;;;;;;;26.34;36.96;100362.50;7712186;32;237075;-68
2023/07/08 08:04:17;;;;;;;9.95;2.65;;;;;;;26.67;33.60;100352.84;7716108;32;39447;-82
2023/07/08 08:08:33;;;;;;;3.90;2.10;;;;;;;26.76;31.08;100343.03;7726121;32;39617;-82
2023/07/08 08:12:53;;;;;;;4.35;2.30;;;;;;;27.41;31.06;100344.28;7711028;32;37630;-82
2023/07/08 08:17:09;;;;;;;6.25;2.42;;;;;;;27.46;29.76;100337.59;7711422;32;37931;-87
2023/07/08 08:21:26;;;;;;;3.70;2.28;;;;;;;27.53;30.78;100335.69;7715997;32;39291;-83
2023/07/08 08:25:42;;;;;;;4.32;2.30;;;;;;;27.93;29.88;100327.16;7724496;32;40850;-82
2023/07/08 08:29:58;;;;;;;8.85;3.30;;;;;;;28.19;29.77;100332.72;7723244;32;38037;-83
2023/07/08 08:34:15;;;;;;;4.97;2.80;;;;;;;28.24;29.95;100326.00;7723512;32;36812;-83
2023/07/08 08:38:31;;;;;;;6.32;2.40;;;;;;;28.45;28.84;100320.66;7727704;32;39837;-81
2023/07/08 08:43:00;;;;;;;9.07;2.70;;;;;;;28.25;29.24;100325.63;7721168;32;40016;-82
2023/07/08 08:47:54;;;;;;;4.25;2.03;;;;;;;28.71;29.66;100330.22;7720877;32;38042;-81
2023/07/08 08:52:11;;;;;;;5.47;2.40;;;;;;;28.51;27.76;100325.94;7695918;32;37091;-81
2023/07/08 08:56:46;;;;;;;3.97;2.37;;;;;;;28.81;27.06;100323.94;7727898;32;39168;-81
2023/07/08 09:01:08;;;;;;;3.58;1.90;;;;;;;28.22;27.93;100326.38;7717295;32;39621;-82
2023/07/08 09:05:25;;;;;;;5.45;2.15;;;;;;;28.40;29.59;100323.00;7718942;32;38492;-82
2023/07/08 09:10:16;;;;;;;4.00;2.58;;;;;;;28.46;27.40;100325.09;7714821;32;37482;-81
2023/07/08 09:14:34;;;;;;;5.20;2.28;;;;;;;28.15;28.57;100315.06;7706896;32;39906;-82
2023/07/08 09:19:20;;;;;;;5.25;2.28;;;;;;;28.24;28.80;100312.00;7737496;32;40620;-81
2023/07/08 09:23:37;;;;;;;9.85;2.60;;;;;;;28.42;27.50;100313.03;7726184;32;36116;-82
2023/07/08 09:27:54;;;;;;;3.60;2.33;;;;;;;28.27;28.83;100311.22;7737318;32;37873;-81
2023/07/08 09:32:22;;;;;;;5.10;2.45;;;;;;;28.66;27.96;100316.53;7723422;32;40096;-82
2023/07/08 09:36:44;;;;;;;5.93;2.37;;;;;;;28.86;27.34;100310.78;7737162;32;39739;-81
2023/07/08 09:41:00;;;;;;;4.90;2.65;;;;;;;29.23;26.94;100304.34;7723276;32;37812;-81
2023/07/08 09:45:20;;;;;;;4.12;2.20;;;;;;;29.29;26.97;100308.44;7736828;32;37619;-80
2023/07/08 09:49:37;;;;;;;5.10;2.10;;;;;;;28.90;27.40;100306.00;7736653;32;39088;-82
2023/07/08 09:53:54;;;;;;;5.40;2.50;;;;;;;29.00;27.55;100305.31;7736649;32;39913;-81
2023/07/08 09:58:25;;;;;;;4.03;2.35;;;;;;;28.77;28.05;100316.66;7731474;32;37918;-81
2023/07/08 10:02:46;;;;;;;4.35;2.05;;;;;;;28.58;26.87;100309.22;7712524;32;37559;-82
2023/07/08 10:07:10;;;;;;;3.40;1.90;;;;;;;28.90;25.60;100304.00;7699587;32;40199;-81
2023/07/08 10:11:39;;;;;;;3.60;2.30;;;;;;;29.17;25.96;100303.91;7712904;32;39647;-82
2023/07/08 10:16:02;;;;;;;3.62;1.90;;;;;;;29.72;26.13;100289.13;7684968;32;38736;-80
2023/07/08 10:20:20;;;;;;;4.25;2.22;;;;;;;29.69;25.08;100278.66;7689919;32;37614;-81
2023/07/08 10:25:08;;;;;;;6.68;2.20;;;;;;;30.03;24.19;100289.72;7711700;32;39426;-81
2023/07/08 10:29:34;;;;;;;6.55;2.33;;;;;;;30.36;23.55;100285.13;7703370;32;40213;-81
2023/07/08 10:34:15;;;;;;;6.20;2.30;;;;;;;30.69;25.41;100282.03;7685922;32;37810;-81
2023/07/08 10:38:55;;;;;;;3.72;2.22;;;;;;;30.78;22.77;100289.28;7685958;32;37272;-82
2023/07/08 10:43:23;;;;;;;5.45;2.42;;;;;;;30.63;23.72;100271.53;7686026;32;39307;-82
2023/07/08 10:47:43;;;;;;;4.15;2.47;;;;;;;30.92;21.91;100266.78;7685998;32;40724;-82
2023/07/08 10:52:18;;;;;;;6.07;2.60;;;;;;;31.20;22.36;100256.78;7692040;32;38129;-68
2023/07/08 10:56:54;;;;;;;12.32;2.80;;;;;;;30.76;21.43;100257.94;7712534;32;37016;-78
2023/07/08 11:01:29;;;;;;;7.97;2.60;;;;;;;30.13;23.15;100256.06;7711297;32;40137;-77
2023/07/08 11:05:52;;;;;;;5.35;2.35;;;;;;;30.13;22.59;100269.31;7696724;32;40102;-77
2023/07/08 11:10:21;;;;;;;5.15;2.30;;;;;;;30.54;22.88;100259.88;7685569;32;38507;-77
2023/07/08 11:14:49;;;;;;;4.10;2.15;;;;;;;30.27;22.00;100249.72;7693742;32;37339;-76
2023/07/08 11:19:23;;;;;;;4.25;2.37;;;;;;;30.28;23.79;100245.69;7698960;32;39221;-77
2023/07/08 11:23:41;;;;;;;5.30;2.10;;;;;;;30.60;21.26;100245.03;7708891;32;39132;-76
2023/07/08 11:28:02;;;;;;;3.12;2.10;;;;;;;30.67;22.87;100236.59;7711886;32;37958;-77
2023/07/08 11:32:33;;;;;;;4.03;2.33;;;;;;;30.69;22.78;100237.00;7719553;32;37086;-77
2023/07/08 11:37:02;;;;;;;4.07;2.05;;;;;;;30.43;23.13;100240.16;7720112;32;39480;-76
2023/07/08 11:41:33;;;;;;;2.85;2.12;;;;;;;30.81;22.43;100226.59;7701631;32;40685;-77
2023/07/08 11:45:54;;;;;;;2.97;2.08;;;;;;;30.54;23.82;100229.72;7722104;32;37930;-77
2023/07/08 11:50:32;;;;;;;6.65;2.22;;;;;;;31.03;22.69;100214.16;7707396;32;36999;-78
2023/07/08 11:54:55;;;;;;;6.90;2.05;;;;;;;31.43;21.17;100216.97;7706803;32;39396;-77
2023/07/08 11:59:16;;;;;;;5.10;1.95;;;;;;;31.21;23.05;100207.72;7728568;32;39920;-78
2023/07/08 12:03:59;;;;;;;5.28;2.20;;;;;;;31.64;20.98;100204.88;7721369;32;38443;-77
2023/07/08 12:08:36;;;;;;;3.70;2.05;;;;;;;31.65;22.38;100206.50;7720614;32;37162;-77
2023/07/08 12:12:54;;;;;;;4.62;2.50;;;;;;;31.76;21.16;100207.25;7717495;32;40054;-78
2023/07/08 12:17:14;;;;;;;4.28;2.12;;;;;;;31.54;21.27;100205.72;7719148;32;40889;-78
2023/07/08 12:21:34;;;;;;;4.90;2.05;;;;;;;31.22;22.41;100196.06;7709073;32;37789;-77
2023/07/08 12:25:54;;;;;;;3.45;2.10;;;;;;;31.60;21.61;100192.81;7709478;32;37838;-76
2023/07/08 12:30:13;;;;;;;4.35;2.20;;;;;;;31.31;21.23;100192.84;7723198;32;39401;-77
2023/07/08 12:34:31;;;;;;;4.00;2.10;;;;;;;31.06;21.73;100193.66;7723376;32;40213;-76
2023/07/08 12:38:49;;;;;;;6.72;2.12;;;;;;;31.54;21.35;100183.97;7724453;32;38769;-78
2023/07/08 12:43:12;;;;;;;4.18;2.08;;;;;;;31.19;21.35;100187.62;7738231;32;36141;-78
2023/07/08 12:47:28;;;;;;;3.65;1.87;;;;;;;31.70;20.59;100186.34;7724544;32;39309;-77
2023/07/08 12:51:45;;;;;;;5.05;2.20;;;;;;;31.89;20.73;100187.09;7715016;32;40812;-76
2023/07/08 12:56:02;;;;;;;5.37;2.20;;;;;;;32.74;19.40;100176.63;7710897;32;38766;-77
2023/07/08 13:00:29;;;;;;;2.95;2.08;;;;;;;32.74;20.04;100173.78;7697394;32;37875;-77
2023/07/08 13:04:58;;;;;;;4.70;2.33;;;;;;;32.82;20.93;100169.69;7719829;32;39303;-75
2023/07/08 13:09:38;;;;;;;3.78;2.20;;;;;;;33.03;20.40;100165.91;7733280;32;40754;-76
2023/07/08 13:13:59;;;;;;;3.35;2.15;;;;;;;32.88;18.99;100161.59;7715471;32;37984;-77
2023/07/08 13:18:19;;;;;;;3.50;2.20;;;;;;;32.32;21.25;100158.72;7710805;32;36766;-77
2023/07/08 13:22:36;;;;;;;3.72;2.03;;;;;;;32.37;19.69;100161.91;7710630;32;40230;-79
2023/07/08 13:26:55;;;;;;;3.20;1.80;;;;;;;33.10;20.08;100143.25;7729494;32;41253;-77
2023/07/08 13:31:20;;;;;;;6.05;2.08;;;;;;;33.57;18.75;100147.62;7720402;32;38805;-78
2023/07/08 13:35:40;;;;;;;4.10;2.03;;;;;;;33.55;20.16;100142.41;7735783;32;37252;-79
2023/07/08 13:39:57;;;;;;;4.12;2.03;;;;;;;33.98;18.62;100139.06;7718698;32;39242;-79
2023/07/08 13:44:13;;;;;;;4.45;1.87;;;;;;;33.51;19.22;100152.94;7706345;32;39847;-78
2023/07/08 13:48:36;;;;;;;6.25;2.15;;;;;;;33.34;19.12;100157.56;7696168;32;37991;-78
2023/07/08 13:52:56;;;;;;;9.93;2.40;;;;;;;33.28;19.07;100156.41;7710066;32;37023;-80
2023/07/08 13:57:16;;;;;;;3.37;2.00;;;;;;;32.47;19.28;100162.25;7733416;32;39320;-79
2023/07/08 14:01:35;;;;;;;3.87;1.95;;;;;;;32.10;19.15;100156.03;7736405;32;40071;-78
2023/07/08 14:05:51;;;;;;;4.87;1.85;;;;;;;32.26;20.69;100135.00;7736336;32;37893;-79
2023/07/08 14:10:13;;;;;;;5.82;2.37;;;;;;;33.14;19.49;100140.41;7733629;32;37114;-78
2023/07/08 14:14:29;;;;;;;2.30;1.62;;;;;;;33.74;19.03;100135.34;7722442;32;39977;-83
2023/07/08 14:18:45;;;;;;;3.65;2.10;;;;;;;33.81;17.98;100132.44;7735939;32;40789;-87
2023/07/08 14:23:05;;;;;;;5.28;2.15;;;;;;;33.98;18.01;100136.25;7735985;32;38005;-87
2023/07/08 14:27:22;;;;;;;4.95;2.00;;;;;;;34.18;16.91;100141.22;7735767;32;37089;-87
2023/07/08 14:31:38;;;;;;;6.28;2.12;;;;;;;34.47;17.45;100135.97;7718611;32;39466;-88
2023/07/08 14:35:55;;;;;;;3.33;2.00;;;;;;;34.56;17.53;100139.06;7704698;32;39603;-88
2023/07/08 14:40:33;;;;;;;5.47;2.15;;;;;;;34.99;17.09;100127.06;7717725;32;38004;-88
2023/07/08 14:44:52;;;;;;;3.30;1.92;;;;;;;34.69;18.50;100136.44;7725163;32;37872;-87
2023/07/08 14:49:16;;;;;;;5.12;2.10;;;;;;;34.67;17.41;100141.75;7714113;32;39467;-85
2023/07/08 14:53:33;;;;;;;2.70;1.83;;;;;;;35.19;16.67;100131.97;7707448;32;40808;-86
2023/07/08 14:57:50;;;;;;;4.90;2.05;;;;;;;35.31;16.76;100127.75;7718809;32;38812;-85
2023/07/08 15:02:19;;;;;;;10.43;2.10;;;;;;;35.46;16.51;100114.09;7721336;32;37266;-88
2023/07/08 15:06:36;;;;;;;5.43;2.40;;;;;;;35.30;17.35;100123.31;7716658;32;40079;-84
2023/07/08 15:10:54;;;;;;;3.62;2.10;;;;;;;35.48;16.62;100115.25;7722512;32;39812;-86
2023/07/08 15:15:18;;;;;;;5.72;2.00;;;;;;;35.53;16.45;100111.91;7712902;32;36757;-84
2023/07/08 15:19:35;;;;;;;4.68;1.92;;;;;;;35.27;16.92;100112.84;7721142;32;37584;-84
2023/07/08 15:23:52;;;;;;;5.15;2.05;;;;;;;35.14;17.42;100118.31;7721784;32;39447;-85
2023/07/08 15:28:20;;;;;;;3.12;2.03;;;;;;;35.36;17.03;100107.41;7727429;32;40731;-85
2023/07/08 15:32:37;;;;;;;3.83;1.87;;;;;;;34.97;17.89;100100.41;7726327;32;37863;-85
2023/07/08 15:36:56;;;;;;;7.15;2.05;;;;;;;34.85;17.33;100089.72;7738523;32;37775;-86
2023/07/08 15:41:23;;;;;;;4.68;2.00;;;;;;;35.20;17.00;100081.78;7738722;32;40172;-87
2023/07/08 15:45:40;;;;;;;7.72;2.03;;;;;;;35.32;16.72;100069.81;7738641;32;39948;-85
2023/07/08 15:49:57;;;;;;;3.65;2.10;;;;;;;34.82;16.98;100080.03;7722047;32;37652;-82
2023/07/08 15:54:13;;;;;;;6.28;2.15;;;;;;;34.83;17.89;100083.69;7719078;32;37810;-82
2023/07/08 15:58:32;;;;;;;4.40;2.10;;;;;;;34.29;18.39;100085.34;7734285;32;39279;-80
2023/07/08 16:02:54;;;;;;;3.90;2.00;;;;;;;34.75;17.10;100078.13;7698341;32;40037;-81
2023/07/08 16:07:11;;;;;;;2.85;1.98;;;;;;;34.72;17.79;100070.50;7711789;32;38889;-80
2023/07/08 16:11:31;;;;;;;4.32;2.15;;;;;;;34.76;17.42;100076.09;7731729;32;37774;-82
2023/07/08 16:15:48;;;;;;;4.32;2.30;;;;;;;34.76;17.50;100079.72;7713714;32;39969;-83
2023/07/08 16:20:21;;;;;;;7.47;2.53;;;;;;;34.67;17.57;100073.81;7718401;32;40667;-83
2023/07/08 16:24:38;;;;;;;3.55;2.05;;;;;;;34.59;18.40;100083.63;7705513;32;38079;-83
2023/07/08 16:28:54;;;;;;;4.22;2.12;;;;;;;34.82;18.02;100079.25;7720368;32;37312;-82
2023/07/08 16:33:10;;;;;;;3.33;1.90;;;;;;;34.52;19.12;100073.25;7707185;32;39176;-83
2023/07/08 16:37:26;;;;;;;3.20;1.90;;;;;;;34.52;19.20;100078.09;7719314;32;39289;-82
2023/07/08 16:41:43;;;;;;;7.85;2.40;;;;;;;34.58;19.31;100065.88;7716259;32;38023;-88
2023/07/08 16:45:59;;;;;;;3.75;2.30;;;;;;;34.50;19.50;100063.59;7719865;32;36991;-82
2023/07/08 16:50:17;;;;;;;4.12;1.90;;;;;;;34.34;18.70;100061.41;7725451;32;40182;-82
2023/07/08 16:54:35;;;;;;;3.45;1.92;;;;;;;34.22;20.10;100059.97;7729690;32;40008;-84
2023/07/08 16:58:51;;;;;;;7.43;2.20;;;;;;;34.16;19.08;100061.66;7727138;32;38483;-83
2023/07/08 17:03:14;;;;;;;3.55;1.85;;;;;;;33.74;19.69;100058.19;7727304;32;35996;-81
2023/07/08 17:07:31;;;;;;;3.28;2.00;;;;;;;33.60;20.51;100059.16;7728269;32;39723;-81
2023/07/08 17:11:47;;;;;;;6.03;3.17;;;;;;;33.63;21.22;100061.97;7728820;32;38339;-81
2023/07/08 17:16:05;;;;;;;6.60;3.20;;;;;;;33.24;22.85;100060.41;7728171;32;36976;-81
2023/07/08 17:20:25;;;;;;;6.75;3.30;;;;;;;33.01;23.56;100052.53;7725085;32;37294;-81
2023/07/08 17:24:41;;;;;;;8.75;3.85;;;;;;;32.85;23.68;100072.88;7719095;32;39051;-84
2023/07/08 17:28:58;;;;;;;8.02;3.92;;;;;;;32.80;25.35;100073.31;7710392;32;40819;-84
2023/07/08 17:33:17;;;;;;;5.62;2.87;;;;;;;32.36;26.37;100069.25;7710135;32;38757;-84
2023/07/08 17:37:34;;;;;;;8.55;3.62;;;;;;;32.21;26.80;100076.19;7710312;32;37086;-84
2023/07/08 17:41:52;;;;;;;9.95;5.00;;;;;;;31.85;27.31;100080.00;7710149;32;40052;-84
2023/07/08 17:46:12;;;;;;;12.65;5.00;;;;;;;31.54;27.73;100076.09;7710062;32;40861;-83
2023/07/08 17:50:29;;;;;;;8.95;4.50;;;;;;;31.21;27.96;100079.00;7709836;32;36999;-84
2023/07/08 17:54:46;;;;;;;8.52;4.18;;;;;;;31.04;28.49;100082.66;7709682;32;37912;-84
2023/07/08 17:59:04;;;;;;;9.68;3.17;;;;;;;30.80;28.78;100075.81;7709665;32;40070;-84
2023/07/08 18:03:20;;;;;;;35.53;5.15;;;;;;;30.81;28.76;100085.88;7709534;32;40720;-84
2023/07/08 18:07:38;;;;;;;9.98;4.00;;;;;;;30.50;29.95;100086.25;7709480;32;38134;-84
2023/07/08 18:11:55;;;;;;;9.77;3.55;;;;;;;30.16;30.44;100085.78;7709247;32;37933;-84
2023/07/08 18:16:17;;;;;;;9.68;3.20;;;;;;;29.88;30.62;100087.31;7695430;32;39398;-84
2023/07/08 18:20:36;;;;;;;7.70;3.22;;;;;;;29.61;31.10;100091.59;7709328;32;39959;-84
2023/07/08 18:24:54;;;;;;;11.45;4.87;;;;;;;29.41;32.28;100091.91;7699353;32;37603;-84
2023/07/08 18:29:12;;;;;;;24.27;11.02;;;;;;;29.34;32.49;100098.28;7712734;32;37107;-83
2023/07/08 18:33:29;;;;;;;13.82;5.93;;;;;;;28.89;34.11;100091.97;7712459;32;39267;-84
2023/07/08 18:37:46;;;;;;;8.75;3.62;;;;;;;28.68;34.70;100094.59;7712588;32;40709;-85
2023/07/08 18:42:04;;;;;;;8.20;3.90;;;;;;;28.38;35.26;100096.28;7712636;32;38866;-84
2023/07/08 18:46:20;;;;;;;9.10;4.43;;;;;;;28.39;35.05;100102.69;7698830;32;37848;-84
2023/07/08 18:50:37;;;;;;;8.48;4.80;;;;;;;28.08;36.29;100108.41;7712530;32;39013;-84
2023/07/08 18:54:54;;;;;;;8.73;5.60;;;;;;;27.85;36.74;100108.50;7712348;32;40835;-84
2023/07/08 18:59:11;;;;;;;9.27;5.12;;;;;;;27.65;37.11;100119.06;7712316;32;38746;-84
2023/07/08 19:03:31;;;;;;;10.25;4.30;;;;;;;27.29;37.93;100129.75;7712302;32;37075;-84
2023/07/08 19:07:49;;;;;;;9.77;5.50;;;;;;;27.23;37.73;100131.22;7712531;32;40278;-80
2023/07/08 19:12:08;;;;;;;10.40;4.10;;;;;;;27.10;38.59;100133.44;7698424;32;40561;-82
2023/07/08 19:16:25;;;;;;;7.10;3.50;;;;;;;26.91;39.03;100142.72;7684205;32;37763;-82
2023/07/08 19:20:44;;;;;;;14.60;6.05;;;;;;;26.79;39.01;100142.94;7685563;32;38019;-84
2023/07/08 19:25:21;;;;;;;9.35;4.03;;;;;;;26.65;39.13;100145.47;7695132;32;39171;-82
2023/07/08 19:29:39;;;;;;;7.25;2.90;;;;;;;26.39;39.56;100160.97;7688142;32;39989;-83
2023/07/08 19:33:59;;;;;;;6.93;3.67;;;;;;;25.98;40.28;100152.97;7695701;32;37940;-81
2023/07/08 19:38:17;;;;;;;9.75;4.35;;;;;;;25.90;40.43;100159.53;7706351;32;37857;-81
2023/07/08 19:42:35;;;;;;;8.82;3.75;;;;;;;25.84;40.57;100161.81;7696773;32;38350;-82
2023/07/08 19:46:58;;;;;;;5.10;2.47;;;;;;;25.65;40.95;100159.81;7692521;32;40023;-81
2023/07/08 19:51:31;;;;;;;7.25;2.80;;;;;;;25.43;41.70;100163.31;7693779;32;36426;-82
2023/07/08 19:55:49;;;;;;;5.65;2.75;;;;;;;25.24;42.03;100159.25;7697657;32;36999;-81
2023/07/08 20:00:17;;;;;;;6.05;2.75;;;;;;;25.18;42.51;100165.47;7695023;32;39457;-83
2023/07/08 20:04:47;;;;;;;4.15;2.50;;;;;;;25.06;42.75;100170.00;7710389;32;40088;-82
2023/07/08 20:09:11;;;;;;;4.12;2.58;;;;;;;24.76;44.02;100161.25;7702445;32;36923;-81